Time;durP1;ratioP1;P1;durP2;ratioP2;P2;SDS_P1;SDS_P2;PMS_P1;PMS_P2;Temp;Humidity;BMP_temperature;BMP_pressure;BME280_temperature;BME280_humidity;BME280_pressure;Samples;Min_cycle;Max_cycle;Signal;HPM_P1;HPM_P2
2022/08/06 00:02:20;;;;;;;4.95;1.23;;;;;;;15.71;100.00;102521.81;5116254;27;20051;-59
2022/08/06 00:04:52;;;;;;;5.18;1.40;;;;;;;15.68;99.68;102512.34;5108151;27;20043;-59
2022/08/06 00:07:19;;;;;;;6.55;1.23;;;;;;;15.67;100.00;102520.41;5097311;27;20151;-60
2022/08/06 00:09:52;;;;;;;4.18;1.48;;;;;;;15.65;100.00;102517.06;5110435;27;20094;-60
2022/08/06 00:12:26;;;;;;;5.00;1.30;;;;;;;15.59;100.00;102521.94;5094861;27;20047;-58
2022/08/06 00:14:56;;;;;;;4.85;1.30;;;;;;;15.54;100.00;102524.19;5112009;27;20048;-61
2022/08/06 00:17:24;;;;;;;5.63;1.15;;;;;;;15.50;100.00;102514.81;5098547;27;20051;-58
2022/08/06 00:19:57;;;;;;;5.28;1.33;;;;;;;15.43;100.00;102522.47;5102710;27;20044;-60
2022/08/06 00:22:29;;;;;;;3.28;1.30;;;;;;;15.49;100.00;102531.69;5088466;27;20284;-60
2022/08/06 00:24:56;;;;;;;6.28;1.40;;;;;;;15.46;100.00;102531.09;5108170;27;20047;-60
2022/08/06 00:27:24;;;;;;;7.63;1.30;;;;;;;15.45;100.00;102540.84;5103328;27;20104;-58
2022/08/06 00:30:01;;;;;;;6.32;1.35;;;;;;;15.40;100.00;102538.59;5095680;27;20059;-58
2022/08/06 00:32:31;;;;;;;4.57;1.30;;;;;;;15.38;100.00;102539.72;5110301;27;20142;-60
2022/08/06 00:34:59;;;;;;;6.85;1.20;;;;;;;15.30;100.00;102532.47;5092904;27;20455;-59
2022/08/06 00:37:28;;;;;;;4.93;1.58;;;;;;;15.28;100.00;102541.50;5097071;27;20508;-58
2022/08/06 00:40:17;;;;;;;9.35;1.52;;;;;;;15.22;100.00;102524.38;5100164;27;20536;-59
2022/08/06 00:42:51;;;;;;;2.65;1.10;;;;;;;15.19;100.00;102533.44;5118163;27;20043;-59
2022/08/06 00:45:20;;;;;;;4.85;1.30;;;;;;;15.11;100.00;102537.69;5109494;27;20046;-59
2022/08/06 00:47:51;;;;;;;6.93;1.20;;;;;;;15.10;100.00;102541.31;5120514;27;20057;-59
2022/08/06 00:50:32;;;;;;;5.38;1.30;;;;;;;15.11;100.00;102542.97;5095966;27;20047;-58
2022/08/06 00:53:01;;;;;;;6.75;1.40;;;;;;;15.11;100.00;102545.63;5112775;27;20054;-57
2022/08/06 00:55:30;;;;;;;3.25;1.30;;;;;;;15.09;100.00;102550.22;5101946;27;20087;-58
2022/08/06 00:58:01;;;;;;;6.78;1.30;;;;;;;15.09;100.00;102556.31;5106435;27;20587;-59
2022/08/06 01:00:29;;;;;;;3.47;1.08;;;;;;;15.02;100.00;102555.22;5108512;27;20049;-60
2022/08/06 01:02:56;;;;;;;3.70;1.33;;;;;;;15.01;100.00;102564.09;5101950;27;20451;-60
2022/08/06 01:05:23;;;;;;;5.32;1.40;;;;;;;14.96;100.00;102563.66;5107298;27;20097;-62
2022/08/06 01:08:10;;;;;;;5.05;1.50;;;;;;;14.96;100.00;102567.13;5107361;27;20055;-60
2022/08/06 01:10:39;;;;;;;7.90;1.67;;;;;;;14.94;100.00;102574.38;5097851;27;20082;-60
2022/08/06 01:13:08;;;;;;;7.28;1.60;;;;;;;14.90;100.00;102564.22;5110667;27;20327;-60
2022/08/06 01:15:58;;;;;;;5.28;1.50;;;;;;;14.93;100.00;102577.97;5100088;27;20054;-60
2022/08/06 01:18:41;;;;;;;4.13;1.35;;;;;;;14.89;100.00;102579.19;5101997;27;20078;-60
2022/08/06 01:21:42;;;;;;;8.70;1.85;;;;;;;14.86;100.00;102579.47;5094430;27;20048;-60
2022/08/06 01:24:53;;;;;;;5.18;1.65;;;;;;;14.81;100.00;102579.03;5108146;27;20066;-58
2022/08/06 01:27:42;;;;;;;5.00;1.30;;;;;;;14.82;100.00;102583.34;5093860;27;20287;-59
2022/08/06 01:30:17;;;;;;;3.45;1.10;;;;;;;14.82;100.00;102597.41;5102354;27;20385;-59
2022/08/06 01:33:00;;;;;;;6.05;1.30;;;;;;;14.80;100.00;102590.56;5091256;27;20055;-60
2022/08/06 01:35:39;;;;;;;5.82;1.55;;;;;;;14.74;100.00;102591.06;5112944;27;20061;-60
2022/08/06 01:38:26;;;;;;;6.43;1.60;;;;;;;14.74;100.00;102586.66;5098748;27;20502;-59
2022/08/06 01:40:55;;;;;;;3.72;1.30;;;;;;;14.73;100.00;102594.69;5110285;27;20154;-60
2022/08/06 01:43:23;;;;;;;6.00;1.70;;;;;;;14.72;100.00;102595.66;5097216;27;20047;-58
2022/08/06 01:46:11;;;;;;;3.63;1.35;;;;;;;14.69;100.00;102601.22;5105694;27;20051;-59
2022/08/06 01:48:42;;;;;;;4.72;1.30;;;;;;;14.66;100.00;102591.72;5100922;27;20047;-60
2022/08/06 01:51:11;;;;;;;4.25;1.50;;;;;;;14.62;100.00;102592.94;5105447;27;20100;-60
2022/08/06 01:54:01;;;;;;;5.80;1.80;;;;;;;14.59;100.00;102593.22;5104946;28;20104;-60
2022/08/06 01:56:36;;;;;;;6.20;1.50;;;;;;;14.55;100.00;102594.41;5110572;27;20426;-60
2022/08/06 01:59:30;;;;;;;4.45;1.27;;;;;;;14.50;100.00;102594.78;5106630;28;20096;-60
2022/08/06 02:01:58;;;;;;;5.88;1.55;;;;;;;14.43;100.00;102601.56;5077446;28;20059;-60
2022/08/06 02:04:30;;;;;;;5.70;1.80;;;;;;;14.40;100.00;102601.81;5113504;28;20046;-59
2022/08/06 02:07:08;;;;;;;4.00;1.50;;;;;;;14.38;100.00;102595.81;5103276;28;20124;-60
2022/08/06 02:09:56;;;;;;;5.50;1.67;;;;;;;14.33;100.00;102604.13;5110075;27;20047;-60
2022/08/06 02:12:25;;;;;;;5.95;1.35;;;;;;;14.33;100.00;102598.00;5095324;28;20054;-58
2022/08/06 02:14:53;;;;;;;;;;;;;;;14.31;100.00;102594.66;5107402;27;20051;-59
2022/08/06 02:17:24;;;;;;;;;;;;;;;14.29;100.00;102600.09;5117652;27;19923;-60
2022/08/06 02:20:14;;;;;;;7.05;1.30;;;;;;;14.30;100.00;102603.56;5109725;27;19934;-58
2022/08/06 02:23:03;;;;;;;5.80;1.40;;;;;;;14.28;100.00;102600.19;5107679;27;20611;-60
2022/08/06 02:25:32;;;;;;;3.05;1.20;;;;;;;14.29;100.00;102604.50;5104338;27;20105;-60
2022/08/06 02:28:01;;;;;;;2.17;1.15;;;;;;;14.28;100.00;102605.47;5101540;27;20415;-60
2022/08/06 02:30:32;;;;;;;6.80;1.60;;;;;;;14.29;100.00;102608.00;5097974;27;20043;-60
2022/08/06 02:33:03;;;;;;;5.45;1.55;;;;;;;14.27;100.00;102617.00;5105325;27;20058;-60
2022/08/06 02:35:39;;;;;;;5.20;1.30;;;;;;;14.23;100.00;102613.78;5098693;27;20055;-60
2022/08/06 02:38:32;;;;;;;5.47;1.33;;;;;;;14.23;100.00;102611.16;5114888;27;20051;-59
2022/08/06 02:41:07;;;;;;;4.90;1.40;;;;;;;14.18;100.00;102608.03;5094049;27;20043;-59
2022/08/06 02:43:40;;;;;;;4.57;1.45;;;;;;;14.17;100.00;102609.00;5109961;27;20096;-60
2022/08/06 02:46:13;;;;;;;5.30;1.30;;;;;;;14.16;100.00;102608.16;5112075;27;20047;-59
2022/08/06 02:48:47;;;;;;;7.93;1.58;;;;;;;14.14;100.00;102607.47;5101118;27;20491;-59
2022/08/06 02:51:21;;;;;;;7.43;1.30;;;;;;;14.15;100.00;102614.41;5113189;27;20411;-58
2022/08/06 02:54:14;;;;;;;4.28;1.60;;;;;;;14.19;100.00;102607.06;5096728;27;20410;-59
2022/08/06 02:56:44;;;;;;;4.53;1.08;;;;;;;14.16;100.00;102602.88;5103752;27;20081;-60
2022/08/06 02:59:21;;;;;;;6.18;1.48;;;;;;;14.25;100.00;102611.88;5102372;27;20133;-60
2022/08/06 03:01:52;;;;;;;7.70;1.30;;;;;;;14.26;100.00;102616.16;5113080;27;20410;-59
2022/08/06 03:04:23;;;;;;;6.40;1.45;;;;;;;14.22;100.00;102612.09;5096998;27;20413;-61
2022/08/06 03:07:03;;;;;;;5.63;1.40;;;;;;;14.19;100.00;102620.25;5105718;27;20089;-60
2022/08/06 03:09:51;;;;;;;2.88;1.27;;;;;;;14.23;100.00;102622.53;5105057;27;20043;-60
2022/08/06 03:12:19;;;;;;;6.20;1.65;;;;;;;14.21;100.00;102626.25;5109543;27;20043;-58
2022/08/06 03:14:59;;;;;;;3.65;1.33;;;;;;;14.20;100.00;102620.13;5110915;27;20051;-60
2022/08/06 03:17:37;;;;;;;5.07;2.00;;;;;;;14.15;100.00;102622.34;5105028;27;20264;-59
2022/08/06 03:20:05;;;;;;;5.75;1.65;;;;;;;14.11;100.00;102623.53;5098700;27;20047;-59
2022/08/06 03:22:43;;;;;;;6.43;1.58;;;;;;;14.08;100.00;102623.78;5093060;27;20081;-60
2022/08/06 03:25:13;;;;;;;3.08;1.30;;;;;;;14.02;100.00;102632.22;5113159;27;20055;-59
2022/08/06 03:27:41;;;;;;;2.78;1.40;;;;;;;13.93;100.00;102628.50;5105218;27;20058;-59
2022/08/06 03:30:15;;;;;;;4.03;1.30;;;;;;;13.85;100.00;102629.13;5120513;27;20047;-60
2022/08/06 03:33:02;;;;;;;4.25;1.58;;;;;;;13.79;100.00;102632.25;5105836;27;20062;-59
2022/08/06 03:35:50;;;;;;;5.10;1.67;;;;;;;13.75;100.00;102633.47;5102743;27;20056;-59
2022/08/06 03:38:20;;;;;;;5.93;1.65;;;;;;;13.76;100.00;102639.56;5115586;27;20051;-60
2022/08/06 03:40:54;;;;;;;5.28;1.40;;;;;;;13.71;100.00;102637.31;5117077;27;20066;-60
2022/08/06 03:43:21;;;;;;;6.28;1.77;;;;;;;13.62;100.00;102641.53;5118160;27;20130;-60
2022/08/06 03:45:59;;;;;;;6.85;1.40;;;;;;;13.61;100.00;102639.84;5116067;27;20054;-59
2022/08/06 03:48:31;;;;;;;4.63;1.30;;;;;;;13.57;100.00;102638.41;5097282;27;20131;-60
2022/08/06 03:51:04;;;;;;;7.63;1.55;;;;;;;13.56;100.00;102639.34;5101223;27;20058;-60
2022/08/06 03:53:37;;;;;;;5.40;1.33;;;;;;;13.57;100.00;102642.84;5110195;27;20462;-60
2022/08/06 03:56:15;;;;;;;3.10;1.40;;;;;;;13.53;100.00;102642.25;5093081;27;20054;-60
2022/08/06 03:58:44;;;;;;;4.47;1.60;;;;;;;13.51;100.00;102646.00;5105868;27;20051;-60
2022/08/06 04:01:17;;;;;;;5.35;1.58;;;;;;;13.47;100.00;102652.47;5106425;27;20415;-60
2022/08/06 04:03:47;;;;;;;4.63;1.83;;;;;;;13.42;100.00;102655.44;5096214;27;20062;-60
2022/08/06 04:06:17;;;;;;;3.42;1.75;;;;;;;13.39;100.00;102659.16;5124073;27;20051;-60
2022/08/06 04:08:47;;;;;;;5.30;1.75;;;;;;;13.34;100.00;102658.66;5110946;27;20054;-59
2022/08/06 04:11:16;;;;;;;5.25;1.75;;;;;;;13.33;100.00;102656.16;5114568;27;20480;-60
2022/08/06 04:14:04;;;;;;;7.05;1.80;;;;;;;13.30;100.00;102656.41;5098090;27;20046;-59
2022/08/06 04:16:35;;;;;;;5.57;1.88;;;;;;;13.30;100.00;102669.59;5109884;27;20047;-60
2022/08/06 04:19:06;;;;;;;4.50;1.90;;;;;;;13.32;100.00;102670.31;5105272;27;20137;-60
2022/08/06 04:21:35;;;;;;;4.03;1.60;;;;;;;13.37;100.00;102670.78;5101175;27;20051;-60
2022/08/06 04:24:22;;;;;;;9.38;1.83;;;;;;;13.38;100.00;102673.28;5105270;27;20047;-60
2022/08/06 04:26:58;;;;;;;5.85;1.85;;;;;;;13.36;100.00;102663.84;5093934;27;20405;-60
2022/08/06 04:29:26;;;;;;;4.00;1.70;;;;;;;13.43;100.00;102675.59;5110856;27;20059;-60
2022/08/06 04:32:15;;;;;;;4.47;1.58;;;;;;;13.44;100.00;102675.44;5100129;27;20523;-60
2022/08/06 04:34:47;;;;;;;5.72;2.88;;;;;;;13.43;100.00;102678.22;5107839;27;20512;-60
2022/08/06 04:37:35;;;;;;;6.72;1.85;;;;;;;13.42;100.00;102669.44;5088463;27;20055;-59
2022/08/06 04:40:08;;;;;;;5.75;1.85;;;;;;;13.48;100.00;102678.69;5103968;27;20047;-61
2022/08/06 04:42:40;;;;;;;5.53;1.90;;;;;;;13.54;100.00;102680.00;5092728;27;20047;-61
2022/08/06 04:45:09;;;;;;;7.70;2.00;;;;;;;13.63;100.00;102681.91;5112730;27;20054;-60
2022/08/06 04:47:56;;;;;;;6.28;2.30;;;;;;;13.70;100.00;102682.25;5095409;27;20374;-60
2022/08/06 04:50:23;;;;;;;5.05;1.73;;;;;;;13.80;100.00;102689.34;5101930;27;20124;-59
2022/08/06 04:52:50;;;;;;;3.75;1.83;;;;;;;13.83;100.00;102685.59;5117332;27;20051;-60
2022/08/06 04:55:21;;;;;;;5.03;1.90;;;;;;;13.91;100.00;102692.91;5095179;27;20082;-60
2022/08/06 04:57:59;;;;;;;6.85;1.83;;;;;;;13.92;100.00;102691.97;5103014;27;20058;-60
2022/08/06 05:00:37;;;;;;;7.80;2.03;;;;;;;14.00;100.00;102697.47;5095826;27;20050;-60
2022/08/06 05:03:24;;;;;;;4.82;2.03;;;;;;;14.07;100.00;102696.00;5104971;27;20551;-60
2022/08/06 05:06:38;;;;;;;4.03;1.90;;;;;;;14.18;100.00;102701.25;5106563;27;20054;-59
2022/08/06 05:09:24;;;;;;;6.35;2.75;;;;;;;14.21;100.00;102706.28;5100210;27;20078;-62
2022/08/06 05:12:38;;;;;;;6.10;2.20;;;;;;;14.21;100.00;102711.56;5100418;27;20519;-60
2022/08/06 05:15:16;;;;;;;6.15;1.80;;;;;;;14.22;100.00;102707.94;5103168;27;20048;-59
2022/08/06 05:17:56;;;;;;;5.78;2.03;;;;;;;14.30;100.00;102715.25;5104148;27;20039;-60
2022/08/06 05:20:28;;;;;;;3.25;1.70;;;;;;;14.35;100.00;102717.53;5110103;27;20047;-60
2022/08/06 05:23:14;;;;;;;7.28;2.45;;;;;;;14.41;100.00;102715.22;5100952;27;20546;-60
2022/08/06 05:25:47;;;;;;;3.33;2.35;;;;;;;14.46;100.00;102720.13;5111891;27;20055;-60
2022/08/06 05:28:21;;;;;;;6.28;1.90;;;;;;;14.46;100.00;102719.28;5122804;27;20609;-61
2022/08/06 05:30:54;;;;;;;4.32;1.85;;;;;;;14.51;100.00;102717.13;5100884;27;20043;-61
2022/08/06 05:33:27;;;;;;;5.85;1.92;;;;;;;14.51;100.00;102725.88;5091486;27;20095;-60
2022/08/06 05:35:56;;;;;;;3.78;1.70;;;;;;;14.48;100.00;102726.09;5097295;27;20084;-60
2022/08/06 05:38:32;;;;;;;4.07;1.75;;;;;;;14.50;100.00;102731.25;5100627;27;20110;-61
2022/08/06 05:41:04;;;;;;;6.93;2.00;;;;;;;14.52;100.00;102730.16;5094447;27;20646;-60
2022/08/06 05:43:33;;;;;;;5.60;2.00;;;;;;;14.49;100.00;102735.72;5109006;27;20051;-60
2022/08/06 05:46:22;;;;;;;5.45;2.05;;;;;;;14.49;100.00;102734.88;5108037;27;20051;-60
2022/08/06 05:48:55;;;;;;;4.75;1.70;;;;;;;14.51;100.00;102736.44;5106218;27;20070;-60
2022/08/06 05:51:34;;;;;;;5.18;1.73;;;;;;;14.56;100.00;102743.97;5099239;27;20051;-61
2022/08/06 05:54:17;;;;;;;5.07;2.03;;;;;;;14.62;100.00;102746.13;5106344;27;20075;-61
2022/08/06 05:56:47;;;;;;;6.13;1.88;;;;;;;14.62;100.00;102752.28;5106541;28;20048;-60
2022/08/06 05:59:24;;;;;;;4.40;1.83;;;;;;;14.61;100.00;102755.03;5092029;28;20490;-59
2022/08/06 06:02:06;;;;;;;5.32;1.88;;;;;;;14.63;100.00;102751.28;5104932;28;20407;-60
2022/08/06 06:04:33;;;;;;;;;;;;;;;14.69;100.00;102749.13;5087728;28;20057;-61
2022/08/06 06:07:01;;;;;;;14.85;2.58;;;;;;;14.75;100.00;102752.09;5102009;28;19931;-60
2022/08/06 06:09:35;;;;;;;5.07;1.75;;;;;;;14.81;100.00;102750.75;5112949;27;20494;-60
2022/08/06 06:12:22;;;;;;;7.38;1.63;;;;;;;14.86;100.00;102748.56;5115294;28;20055;-60
2022/08/06 06:15:00;;;;;;;7.18;1.70;;;;;;;14.91;100.00;102748.19;5109425;28;20549;-61
2022/08/06 06:18:05;;;;;;;;;;;;;;;15.01;100.00;102749.06;5090843;28;20058;-60
2022/08/06 06:20:43;;;;;;;2.20;1.00;;;;;;;15.08;100.00;102749.41;5116349;27;20387;-59
2022/08/06 06:23:46;;;;;;;1.90;1.05;;;;;;;15.14;100.00;102752.38;5092016;28;20074;-61
2022/08/06 06:26:36;;;;;;;4.13;1.60;;;;;;;15.19;100.00;102755.47;5116886;28;20476;-60
2022/08/06 06:29:19;;;;;;;8.80;1.63;;;;;;;15.30;100.00;102751.06;5096308;28;20051;-61
2022/08/06 06:32:33;;;;;;;4.60;1.17;;;;;;;15.38;100.00;102757.38;5098539;28;20051;-60
2022/08/06 06:35:34;;;;;;;4.55;1.30;;;;;;;15.46;100.00;102767.31;5104574;28;20044;-60
2022/08/06 06:38:17;;;;;;;5.35;1.25;;;;;;;15.55;100.00;102765.69;5102605;27;20090;-61
2022/08/06 06:41:05;;;;;;;4.60;1.20;;;;;;;15.59;100.00;102770.56;5099193;28;20054;-60
2022/08/06 06:44:05;;;;;;;4.30;1.00;;;;;;;15.60;100.00;102764.31;5107850;27;20554;-60
2022/08/06 06:46:53;;;;;;;3.40;1.00;;;;;;;15.70;100.00;102764.38;5095860;28;20066;-60
2022/08/06 06:49:35;;;;;;;6.47;1.05;;;;;;;15.79;100.00;102763.59;5102534;28;20511;-61
2022/08/06 06:52:26;;;;;;;2.67;0.90;;;;;;;15.87;100.00;102767.38;5111926;27;20533;-61
2022/08/06 06:55:09;;;;;;;3.17;0.93;;;;;;;15.93;100.00;102764.19;5101801;28;20474;-60
2022/08/06 06:57:50;;;;;;;3.50;0.90;;;;;;;16.00;100.00;102760.03;5094002;27;20108;-60
2022/08/06 07:00:17;;;;;;;4.13;1.00;;;;;;;16.05;100.00;102768.41;5099039;28;20545;-61
2022/08/06 07:03:05;;;;;;;2.55;0.75;;;;;;;16.11;100.00;102756.44;5100976;27;20052;-60
2022/08/06 07:05:38;;;;;;;3.75;0.95;;;;;;;16.20;100.00;102753.81;5105601;27;20135;-59
2022/08/06 07:08:26;;;;;;;5.00;1.17;;;;;;;16.30;100.00;102753.84;5096023;27;20059;-60
2022/08/06 07:11:05;;;;;;;3.13;0.80;;;;;;;16.35;100.00;102756.09;5120274;27;20137;-58
2022/08/06 07:13:34;;;;;;;9.60;1.35;;;;;;;16.41;100.00;102753.72;5099767;27;20272;-60
2022/08/06 07:16:19;;;;;;;5.43;0.77;;;;;;;16.49;100.00;102762.78;5110309;27;20077;-60
2022/08/06 07:19:03;;;;;;;2.65;0.70;;;;;;;16.57;100.00;102760.28;5109304;27;20436;-60
2022/08/06 07:21:31;;;;;;;3.03;0.73;;;;;;;16.61;100.00;102764.31;5106204;27;20465;-60
2022/08/06 07:23:58;;;;;;;2.88;0.70;;;;;;;16.69;100.00;102766.28;5103516;28;20063;-61
2022/08/06 07:26:47;;;;;;;2.70;0.52;;;;;;;16.74;100.00;102764.91;5102894;27;20256;-60
2022/08/06 07:29:19;;;;;;;3.03;0.80;;;;;;;16.78;100.00;102774.22;5102167;27;20062;-60
2022/08/06 07:32:07;;;;;;;;;;;;;;;16.89;100.00;102775.91;5094403;27;20062;-61
2022/08/06 07:34:54;;;;;;;2.15;1.00;;;;;;;16.92;100.00;102780.13;5106793;27;20267;-60
2022/08/06 07:37:24;;;;;;;3.28;0.63;;;;;;;16.98;100.00;102776.91;5103975;27;20089;-61
2022/08/06 07:39:53;;;;;;;1.77;0.80;;;;;;;17.02;100.00;102773.00;5103201;27;20492;-59
2022/08/06 07:42:24;;;;;;;9.60;1.10;;;;;;;17.08;100.00;102774.25;5102316;27;20518;-61
2022/08/06 07:44:53;;;;;;;7.22;0.90;;;;;;;17.11;100.00;102776.59;5117335;27;20053;-60
2022/08/06 07:47:27;;;;;;;3.88;1.05;;;;;;;17.16;100.00;102783.16;5102783;28;20051;-60
2022/08/06 07:50:14;;;;;;;3.17;0.70;;;;;;;17.23;100.00;102770.19;5113518;27;20047;-60
2022/08/06 07:52:43;;;;;;;2.30;0.70;;;;;;;17.30;100.00;102781.88;5110789;27;20043;-59
2022/08/06 07:55:12;;;;;;;5.65;1.00;;;;;;;17.37;100.00;102777.66;5074821;27;20058;-60
2022/08/06 07:57:42;;;;;;;3.67;0.70;;;;;;;17.44;98.09;102779.75;5109602;27;20051;-60
2022/08/06 08:00:22;;;;;;;3.92;0.90;;;;;;;17.47;95.64;102780.28;5093799;28;20401;-60
2022/08/06 08:06:18;;;;;;;6.68;0.82;;;;;;;17.53;93.86;102785.03;5105318;27;20047;-61
2022/08/06 08:08:53;;;;;;;1.75;0.60;;;;;;;17.59;92.45;102781.78;5106733;27;20051;-60
2022/08/06 08:11:24;;;;;;;1.30;0.55;;;;;;;17.61;88.03;102789.59;5105804;27;20759;-60
2022/08/06 08:14:12;;;;;;;2.75;0.60;;;;;;;17.64;85.10;102789.34;5105214;27;20364;-59
2022/08/06 08:16:40;;;;;;;4.38;0.73;;;;;;;17.71;87.74;102790.41;5102088;28;20051;-60
2022/08/06 08:19:23;;;;;;;2.95;0.70;;;;;;;17.76;88.31;102790.81;5083064;27;20092;-61
2022/08/06 08:21:51;;;;;;;1.60;0.40;;;;;;;17.81;84.12;102790.38;5102749;27;20055;-60
2022/08/06 08:24:18;;;;;;;3.25;0.63;;;;;;;17.96;80.55;102793.41;5100629;27;20055;-61
2022/08/06 08:26:44;;;;;;;2.80;0.60;;;;;;;18.21;83.37;102796.34;5084940;27;20043;-61
2022/08/06 08:29:31;;;;;;;1.60;0.55;;;;;;;18.58;81.18;102797.09;5093728;27;20058;-61
2022/08/06 08:32:00;;;;;;;4.97;0.90;;;;;;;18.89;71.39;102786.06;5109368;27;20488;-60
2022/08/06 08:34:31;;;;;;;1.95;0.57;;;;;;;19.15;71.52;102790.59;5106721;27;20052;-60
2022/08/06 08:36:59;;;;;;;2.85;0.70;;;;;;;19.52;74.23;102793.03;5111158;27;20047;-59
2022/08/06 08:39:27;;;;;;;3.97;1.00;;;;;;;19.98;74.97;102791.94;5110852;27;20449;-60
2022/08/06 08:42:17;;;;;;;3.22;0.77;;;;;;;20.44;72.87;102787.88;5104071;27;20044;-59
2022/08/06 08:44:58;;;;;;;3.08;0.90;;;;;;;20.89;73.20;102794.59;5107543;27;20116;-58
2022/08/06 08:47:25;;;;;;;;;;;;;;;21.18;69.87;102787.09;5099777;27;20512;-58
2022/08/06 08:50:12;;;;;;;1.58;0.60;;;;;;;21.21;69.45;102797.41;5117026;27;19930;-58
2022/08/06 08:52:46;;;;;;;1.23;0.60;;;;;;;21.52;68.05;102795.72;5101417;27;20061;-59
2022/08/06 08:55:18;;;;;;;3.65;0.50;;;;;;;21.71;65.79;102796.31;5110224;27;20405;-58
2022/08/06 08:58:05;;;;;;;2.55;0.77;;;;;;;21.92;63.70;102785.06;5095596;27;20392;-58
2022/08/06 09:00:51;;;;;;;2.88;0.70;;;;;;;21.67;63.89;102789.66;5096895;27;20046;-58
2022/08/06 09:03:21;;;;;;;2.00;0.65;;;;;;;21.91;62.00;102794.06;5101774;27;20991;-59
2022/08/06 09:05:49;;;;;;;3.85;0.98;;;;;;;22.23;62.84;102802.94;5107348;27;20075;-60
2022/08/06 09:08:19;;;;;;;2.20;0.60;;;;;;;22.48;60.11;102792.94;5098995;27;20051;-59
2022/08/06 09:11:06;;;;;;;3.70;0.68;;;;;;;22.73;60.41;102790.09;5109939;27;20047;-59
2022/08/06 09:13:53;;;;;;;2.47;0.83;;;;;;;22.88;61.22;102791.78;5088686;27;20063;-60
2022/08/06 09:16:26;;;;;;;2.50;0.65;;;;;;;23.10;56.73;102789.28;5109840;27;20235;-60
2022/08/06 09:19:01;;;;;;;2.00;0.55;;;;;;;23.46;57.41;102796.59;5119965;27;20062;-59
2022/08/06 09:21:30;;;;;;;4.15;0.93;;;;;;;23.45;57.28;102800.31;5101184;27;20494;-58
2022/08/06 09:23:58;;;;;;;2.35;0.52;;;;;;;23.25;57.34;102800.03;5101264;28;20058;-60
2022/08/06 09:26:33;;;;;;;1.08;0.60;;;;;;;23.06;57.46;102796.03;5103707;27;20051;-60
2022/08/06 09:29:21;;;;;;;2.95;0.77;;;;;;;22.86;56.94;102796.50;5100268;28;20055;-59
2022/08/06 09:31:58;;;;;;;1.83;0.65;;;;;;;22.55;56.85;102799.25;5111125;27;20058;-60
2022/08/06 09:34:51;;;;;;;4.63;0.80;;;;;;;22.30;57.71;102802.06;5101599;27;20048;-59
2022/08/06 09:37:29;;;;;;;3.72;0.90;;;;;;;22.48;59.02;102800.97;5094363;27;20404;-59
2022/08/06 09:40:19;;;;;;;3.55;0.90;;;;;;;22.84;56.87;102798.53;5095771;27;20081;-59
2022/08/06 09:42:52;;;;;;;2.45;0.73;;;;;;;23.19;56.21;102790.88;5110094;27;20092;-60
2022/08/06 09:45:21;;;;;;;3.55;0.82;;;;;;;23.40;55.15;102795.50;5090287;28;20491;-57
2022/08/06 09:48:10;;;;;;;3.90;0.80;;;;;;;23.93;55.42;102795.41;5113708;27;20101;-58
2022/08/06 09:50:47;;;;;;;1.90;0.70;;;;;;;24.32;53.16;102796.03;5096676;27;20272;-60
2022/08/06 09:53:17;;;;;;;3.58;0.60;;;;;;;24.57;53.07;102799.22;5116528;27;20523;-60
2022/08/06 09:55:47;;;;;;;2.92;0.60;;;;;;;24.67;50.45;102795.19;5108802;27;20161;-59
2022/08/06 09:58:26;;;;;;;1.43;0.60;;;;;;;24.48;50.58;102796.63;5108181;27;20059;-59
2022/08/06 10:00:52;;;;;;;4.25;0.82;;;;;;;24.14;51.10;102791.13;5102074;27;20078;-58
2022/08/06 10:03:19;;;;;;;2.67;0.70;;;;;;;23.71;51.55;102796.34;5095567;27;20170;-59
2022/08/06 10:06:08;;;;;;;1.67;0.73;;;;;;;24.17;53.48;102790.72;5113932;28;20047;-60
2022/08/06 10:08:37;;;;;;;1.33;0.70;;;;;;;23.92;52.96;102793.75;5095103;27;20062;-59
2022/08/06 10:11:04;;;;;;;3.50;0.80;;;;;;;23.87;53.41;102791.66;5109813;28;20411;-59
2022/08/06 10:13:34;;;;;;;2.08;0.55;;;;;;;24.03;52.62;102793.28;5099015;28;21029;-59
2022/08/06 10:16:18;;;;;;;2.70;0.70;;;;;;;24.29;52.31;102797.25;5109032;27;20058;-58
2022/08/06 10:18:48;;;;;;;1.23;0.60;;;;;;;24.27;52.42;102794.75;5097753;28;20048;-57
2022/08/06 10:21:26;;;;;;;;;;;;;;;24.24;52.12;102791.63;5100599;28;20058;-59
2022/08/06 10:24:06;;;;;;;1.95;0.50;;;;;;;24.24;52.11;102794.31;5104565;28;19930;-58
2022/08/06 10:26:36;;;;;;;2.38;0.50;;;;;;;24.16;49.43;102784.53;5111362;28;20051;-58
2022/08/06 10:29:05;;;;;;;2.35;0.70;;;;;;;24.55;50.54;102782.47;5101268;28;20626;-57
2022/08/06 10:31:33;;;;;;;2.75;0.95;;;;;;;24.55;49.86;102779.81;5098406;28;20835;-58
2022/08/06 10:34:15;;;;;;;4.00;1.25;;;;;;;24.45;50.29;102780.91;5111745;28;20495;-59
2022/08/06 10:36:54;;;;;;;3.05;0.70;;;;;;;24.47;50.83;102781.56;5096416;27;20055;-58
2022/08/06 10:39:33;;;;;;;3.05;0.70;;;;;;;24.35;50.12;102783.09;5110918;27;20105;-57
2022/08/06 10:42:20;;;;;;;1.42;0.70;;;;;;;24.79;52.03;102774.00;5093776;27;20107;-59
2022/08/06 10:44:50;;;;;;;1.98;0.85;;;;;;;25.02;50.54;102765.72;5107318;27;20194;-58
2022/08/06 10:47:21;;;;;;;3.13;0.63;;;;;;;25.53;49.24;102767.31;5101941;27;20055;-58
2022/08/06 10:50:09;;;;;;;3.85;0.80;;;;;;;26.04;50.54;102763.38;5115752;27;20059;-59
2022/08/06 10:52:55;;;;;;;3.00;0.77;;;;;;;26.20;46.58;102764.88;5090759;27;20487;-59
2022/08/06 10:55:22;;;;;;;2.40;0.63;;;;;;;26.48;47.21;102764.69;5105547;27;20047;-58
2022/08/06 10:57:49;;;;;;;1.95;0.77;;;;;;;26.82;46.83;102757.50;5102555;28;20446;-58
2022/08/06 11:00:17;;;;;;;1.48;0.60;;;;;;;26.99;45.88;102752.47;5104256;27;20058;-59
2022/08/06 11:03:15;;;;;;;2.65;0.70;;;;;;;27.26;44.89;102750.59;5107505;27;20531;-59
2022/08/06 11:05:48;;;;;;;1.90;0.73;;;;;;;27.41;45.95;102758.44;5102163;27;20051;-59
2022/08/06 11:08:38;;;;;;;1.60;0.60;;;;;;;27.40;44.32;102754.06;5104927;27;20052;-59
2022/08/06 11:11:32;;;;;;;1.70;0.60;;;;;;;27.45;45.35;102754.25;5102283;27;20555;-58
2022/08/06 11:14:10;;;;;;;2.30;0.60;;;;;;;27.14;45.79;102753.06;5092762;28;20051;-58
2022/08/06 11:16:59;;;;;;;2.10;0.70;;;;;;;26.78;45.06;102757.06;5098630;27;20696;-60
2022/08/06 11:19:46;;;;;;;3.35;0.70;;;;;;;26.43;46.79;102756.41;5109479;27;20087;-59
2022/08/06 11:22:37;;;;;;;1.92;0.70;;;;;;;26.11;47.22;102758.00;5109673;27;20050;-58
2022/08/06 11:25:08;;;;;;;1.95;0.60;;;;;;;25.80;48.17;102759.38;5099461;28;20048;-58
2022/08/06 11:27:56;;;;;;;2.60;0.85;;;;;;;25.60;47.77;102765.47;5100691;27;20446;-58
2022/08/06 11:30:38;;;;;;;4.20;0.98;;;;;;;25.48;48.11;102768.91;5115168;27;20454;-57
2022/08/06 11:33:07;;;;;;;1.90;0.60;;;;;;;25.36;47.17;102758.72;5102777;27;20104;-59
2022/08/06 11:35:34;;;;;;;0.57;0.50;;;;;;;25.15;46.36;102753.41;5085975;27;20292;-58
2022/08/06 11:38:42;;;;;;;2.00;0.50;;;;;;;25.58;47.77;102753.25;5106107;27;20511;-58
2022/08/06 11:41:18;;;;;;;1.88;0.93;;;;;;;25.77;48.22;102751.69;5098533;27;20507;-58
2022/08/06 11:44:05;;;;;;;;;;;;;;;25.62;47.82;102750.00;5115549;27;20558;-59
2022/08/06 11:46:34;;;;;;;2.45;0.70;;;;;;;25.56;49.10;102752.63;5110040;27;19923;-56
2022/08/06 11:49:13;;;;;;;2.08;0.90;;;;;;;25.35;47.77;102761.63;5109254;27;20119;-59
2022/08/06 11:51:58;;;;;;;1.75;0.57;;;;;;;25.12;48.70;102745.75;5103759;27;20682;-59
2022/08/06 11:54:34;;;;;;;1.52;0.70;;;;;;;24.96;51.00;102749.59;5104007;27;20075;-57
2022/08/06 11:57:01;;;;;;;2.58;0.80;;;;;;;24.63;49.80;102750.16;5105071;27;20051;-59
2022/08/06 11:59:28;;;;;;;5.70;0.98;;;;;;;24.53;50.11;102750.47;5084537;28;20043;-59
2022/08/06 12:01:57;;;;;;;2.20;0.70;;;;;;;24.41;51.68;102760.03;5086917;28;20085;-58
2022/08/06 12:04:35;;;;;;;2.70;0.65;;;;;;;24.19;52.12;102751.16;5099735;27;20051;-58
2022/08/06 12:07:22;;;;;;;2.70;0.90;;;;;;;23.98;52.54;102744.75;5118841;27;20046;-59
2022/08/06 12:10:00;;;;;;;2.40;0.60;;;;;;;23.92;53.10;102750.06;5094437;27;20161;-59
2022/08/06 12:12:27;;;;;;;1.67;0.60;;;;;;;23.88;54.07;102745.06;5107036;27;20452;-58